createdAt,value
2023-06-04T00:01:23.332Z,12.62
2023-06-04T00:03:49.958Z,12.57
2023-06-04T00:06:16.530Z,12.56
2023-06-04T00:08:45.651Z,12.50
2023-06-04T00:11:12.148Z,12.44
2023-06-04T00:13:38.814Z,12.43
2023-06-04T00:16:07.924Z,12.37
2023-06-04T00:18:39.387Z,12.33
2023-06-04T00:21:08.914Z,12.28
2023-06-04T00:23:35.557Z,12.23
2023-06-04T00:26:02.310Z,12.22
2023-06-04T00:28:33.516Z,12.18
2023-06-04T00:31:02.658Z,12.11
2023-06-04T00:33:31.485Z,12.04
2023-06-04T00:36:00.429Z,12.00
2023-06-04T00:38:29.179Z,11.94
2023-06-04T00:40:57.958Z,11.90
2023-06-04T00:43:32.417Z,11.86
2023-06-04T00:46:02.212Z,11.86
2023-06-04T00:48:28.793Z,11.86
2023-06-04T00:50:58.043Z,11.83
2023-06-04T00:53:26.287Z,11.79
2023-06-04T00:55:52.880Z,11.75
2023-06-04T00:58:21.605Z,11.70
2023-06-04T01:00:48.668Z,11.69
2023-06-04T01:03:23.870Z,11.63
2023-06-04T01:06:03.971Z,11.56
2023-06-04T01:08:32.977Z,11.54
2023-06-04T01:10:59.467Z,11.53
2023-06-04T01:13:30.946Z,11.50
2023-06-04T01:16:00.910Z,11.42
2023-06-04T01:18:29.143Z,11.39
2023-06-04T01:21:19.557Z,11.36
2023-06-04T01:24:04.866Z,11.33
2023-06-04T01:26:32.809Z,11.29
2023-06-04T01:29:00.366Z,11.26
2023-06-04T01:31:34.048Z,11.25
2023-06-04T01:34:03.136Z,11.20
2023-06-04T01:36:33.569Z,11.14
2023-06-04T01:39:01.768Z,11.12
2023-06-04T01:41:30.533Z,11.11
2023-06-04T01:44:00.049Z,11.06
2023-06-04T01:46:28.751Z,11.03
2023-06-04T01:48:55.310Z,10.98
2023-06-04T01:51:21.775Z,10.97
2023-06-04T01:53:52.852Z,10.95
2023-06-04T01:56:22.105Z,10.92
2023-06-04T01:58:51.117Z,10.89
2023-06-04T02:01:18.097Z,10.87
2023-06-04T02:03:45.774Z,10.85
2023-06-04T02:06:12.591Z,10.82
2023-06-04T02:08:42.248Z,10.80
2023-06-04T02:11:11.860Z,10.83
2023-06-04T02:13:38.424Z,10.85
2023-06-04T02:16:07.366Z,10.82
2023-06-04T02:18:36.225Z,10.79
2023-06-04T02:21:05.115Z,10.78
2023-06-04T02:23:34.136Z,10.75
2023-06-04T02:26:02.977Z,10.73
2023-06-04T02:28:32.111Z,10.68
2023-06-04T02:30:58.703Z,10.64
2023-06-04T02:33:25.241Z,10.62
2023-06-04T02:35:52.154Z,10.60
2023-06-04T02:38:21.030Z,10.55
2023-06-04T02:40:47.521Z,10.51
2023-06-04T02:43:16.392Z,10.50
2023-06-04T02:45:42.956Z,10.46
2023-06-04T02:48:09.706Z,10.43
2023-06-04T02:50:36.258Z,10.39
2023-06-04T02:53:07.878Z,10.34
2023-06-04T02:55:37.488Z,10.31
2023-06-04T02:58:06.301Z,10.29
2023-06-04T03:00:33.763Z,10.22
2023-06-04T03:03:03.137Z,10.22
2023-06-04T03:05:34.095Z,10.16
2023-06-04T03:08:05.006Z,10.10
2023-06-04T03:10:34.990Z,10.09
2023-06-04T03:13:01.572Z,10.06
2023-06-04T03:15:30.326Z,10.01
2023-06-04T03:17:58.495Z,9.98
2023-06-04T03:20:30.839Z,9.98
2023-06-04T03:22:57.456Z,9.98
2023-06-04T03:25:24.458Z,9.98
2023-06-04T03:27:53.155Z,9.94
2023-06-04T03:30:19.863Z,9.90
2023-06-04T03:32:48.629Z,9.90
2023-06-04T03:35:20.819Z,9.86
2023-06-04T03:37:47.373Z,9.85
2023-06-04T03:40:14.511Z,9.83
2023-06-04T03:42:42.044Z,9.82
2023-06-04T03:45:08.992Z,9.78
2023-06-04T03:47:35.620Z,9.77
2023-06-04T03:50:03.760Z,9.74
2023-06-04T03:52:30.405Z,9.73
2023-06-04T03:54:57.285Z,9.73
2023-06-04T03:57:24.193Z,9.75
2023-06-04T03:59:53.089Z,9.77
2023-06-04T04:02:24.637Z,9.79
2023-06-04T04:04:55.388Z,9.80
2023-06-04T04:07:22.726Z,9.83
2023-06-04T04:09:49.240Z,9.87
2023-06-04T04:12:19.268Z,9.91
2023-06-04T04:14:45.780Z,9.95
2023-06-04T04:17:15.301Z,10.04
2023-06-04T04:19:44.088Z,10.06
2023-06-04T04:22:14.083Z,10.06
2023-06-04T04:24:42.916Z,10.11
2023-06-04T04:27:16.749Z,10.13
2023-06-04T04:29:48.494Z,10.16
2023-06-04T04:32:17.821Z,10.25
2023-06-04T04:34:56.000Z,10.29
2023-06-04T04:37:23.128Z,10.31
2023-06-04T04:39:52.998Z,10.36
2023-06-04T04:42:23.426Z,10.45
2023-06-04T04:44:53.070Z,10.56
2023-06-04T04:47:22.002Z,10.58
2023-06-04T04:49:50.839Z,10.61
2023-06-04T04:52:22.486Z,10.68
2023-06-04T04:54:51.827Z,10.75
2023-06-04T04:57:23.417Z,11.22
2023-06-04T04:59:50.457Z,12.98
2023-06-04T05:02:17.051Z,14.32
2023-06-04T05:04:43.740Z,15.22
2023-06-04T05:07:10.474Z,16.07
2023-06-04T05:09:37.075Z,16.89
2023-06-04T05:12:09.387Z,17.00
2023-06-04T05:14:38.463Z,17.29
2023-06-04T05:17:07.634Z,17.32
2023-06-04T05:19:36.848Z,17.78
2023-06-04T05:22:03.696Z,18.49
2023-06-04T05:24:30.239Z,19.26
2023-06-04T05:27:00.015Z,19.53
2023-06-04T05:29:28.987Z,19.68
2023-06-04T05:31:55.507Z,20.59
2023-06-04T05:34:22.712Z,20.57
2023-06-04T05:36:49.556Z,20.61
2023-06-04T05:39:20.874Z,20.53
2023-06-04T05:41:52.680Z,21.06
2023-06-04T05:44:19.315Z,21.58
2023-06-04T05:46:47.940Z,21.22
2023-06-04T05:49:14.625Z,21.02
2023-06-04T05:51:43.522Z,21.06
2023-06-04T05:54:12.579Z,21.07
2023-06-04T05:56:43.864Z,21.38
2023-06-04T05:59:10.437Z,21.62
2023-06-04T06:01:37.465Z,21.91
2023-06-04T06:04:04.153Z,22.12
2023-06-04T06:06:33.152Z,21.75
2023-06-04T06:09:04.195Z,21.74
2023-06-04T06:11:33.087Z,21.78
2023-06-04T06:13:59.657Z,22.16
2023-06-04T06:16:31.070Z,22.17
2023-06-04T06:18:57.573Z,22.48
2023-06-04T06:21:27.127Z,22.96
2023-06-04T06:23:54.511Z,23.09
2023-06-04T06:26:26.337Z,23.00
2023-06-04T06:28:52.848Z,22.17
2023-06-04T06:31:21.973Z,22.33
2023-06-04T06:33:48.524Z,22.61
2023-06-04T06:36:15.186Z,22.72
2023-06-04T06:38:44.204Z,23.25
2023-06-04T06:41:16.030Z,24.14
2023-06-04T06:43:42.558Z,24.20
2023-06-04T06:46:09.221Z,24.38
2023-06-04T06:48:38.103Z,24.27
2023-06-04T06:51:04.810Z,24.08
2023-06-04T06:53:31.425Z,24.69
2023-06-04T06:56:00.528Z,24.16
2023-06-04T06:58:29.579Z,23.99
2023-06-04T07:00:57.633Z,24.07
2023-06-04T07:03:29.134Z,24.46
2023-06-04T07:05:58.072Z,24.70
2023-06-04T07:08:24.661Z,25.39
2023-06-04T07:10:51.213Z,25.98
2023-06-04T07:13:20.845Z,25.47
2023-06-04T07:15:47.534Z,24.83
2023-06-04T07:18:16.414Z,24.47
2023-06-04T07:20:45.473Z,25.01
2023-06-04T07:23:11.993Z,25.86
2023-06-04T07:25:39.251Z,25.30
2023-06-04T07:28:05.982Z,24.60
2023-06-04T07:30:35.789Z,24.58
2023-06-04T07:33:05.084Z,25.02
2023-06-04T07:35:36.077Z,25.14
2023-06-04T07:38:04.845Z,25.08
2023-06-04T07:40:31.582Z,25.65
2023-06-04T07:43:00.268Z,25.83
2023-06-04T07:45:31.420Z,25.87
2023-06-04T07:47:59.686Z,25.69
2023-06-04T07:50:26.516Z,25.70
2023-06-04T07:52:53.191Z,24.93
2023-06-04T07:55:24.612Z,25.27
2023-06-04T07:57:56.167Z,25.06
2023-06-04T08:00:25.082Z,25.05
2023-06-04T08:02:55.722Z,24.75
2023-06-04T08:05:24.514Z,24.62
2023-06-04T08:07:51.133Z,24.93
2023-06-04T08:10:19.998Z,25.04
2023-06-04T08:12:48.957Z,25.06
2023-06-04T08:15:15.643Z,25.08
2023-06-04T08:17:44.971Z,25.05
2023-06-04T08:20:14.093Z,24.60
2023-06-04T08:22:41.550Z,24.33
2023-06-04T08:25:10.856Z,24.33
2023-06-04T08:27:38.465Z,24.23
2023-06-04T08:30:06.843Z,24.01
2023-06-04T08:32:33.929Z,23.15
2023-06-04T08:35:06.103Z,23.00
2023-06-04T08:37:35.134Z,22.91
2023-06-04T08:40:01.727Z,22.93
2023-06-04T08:42:38.670Z,23.19
2023-06-04T08:45:06.785Z,23.24
2023-06-04T08:47:36.219Z,22.96
2023-06-04T08:50:12.540Z,23.09
2023-06-04T08:52:39.629Z,23.20
2023-06-04T08:55:07.310Z,23.27
2023-06-04T08:57:38.749Z,23.35
2023-06-04T09:00:09.425Z,22.86
2023-06-04T09:02:41.978Z,23.04
2023-06-04T09:05:10.386Z,23.18
2023-06-04T09:07:41.334Z,23.42
2023-06-04T09:10:12.918Z,23.68
2023-06-04T09:12:44.469Z,23.60
2023-06-04T09:15:13.867Z,23.48
2023-06-04T09:17:45.309Z,23.20
2023-06-04T09:20:27.231Z,23.25
2023-06-04T09:22:53.898Z,23.20
2023-06-04T09:25:28.369Z,23.24
2023-06-04T09:28:06.626Z,23.18
2023-06-04T09:30:33.279Z,23.46
2023-06-04T09:33:10.605Z,23.79
2023-06-04T09:35:37.521Z,23.61
2023-06-04T09:38:08.531Z,23.78
2023-06-04T09:40:39.063Z,23.77
2023-06-04T09:43:06.926Z,23.67
2023-06-04T09:45:36.266Z,23.81
2023-06-04T09:48:05.624Z,24.18
2023-06-04T09:50:35.481Z,24.44
2023-06-04T09:53:17.075Z,24.35
2023-06-04T09:55:57.224Z,23.69
2023-06-04T09:58:31.393Z,23.96
2023-06-04T10:01:04.738Z,24.11
2023-06-04T10:03:38.824Z,24.29
2023-06-04T10:06:07.086Z,24.09
2023-06-04T10:08:35.302Z,24.29
2023-06-04T10:11:03.630Z,24.17
2023-06-04T10:13:40.466Z,24.33
2023-06-04T10:16:21.188Z,24.86
2023-06-04T10:18:57.992Z,24.11
2023-06-04T10:21:24.907Z,24.00
2023-06-04T10:23:51.599Z,23.65
2023-06-04T10:26:19.085Z,23.66
2023-06-04T10:28:45.695Z,24.09
2023-06-04T10:31:12.854Z,24.50
2023-06-04T10:33:40.380Z,23.83
2023-06-04T10:36:25.124Z,23.67
2023-06-04T10:38:59.639Z,24.20
2023-06-04T10:41:31.089Z,24.31
2023-06-04T10:44:05.517Z,24.42
2023-06-04T10:46:42.544Z,24.79
2023-06-04T10:49:13.516Z,24.65
2023-06-04T10:51:40.222Z,24.71
2023-06-04T10:54:11.744Z,24.68
2023-06-04T10:56:38.567Z,24.73
2023-06-04T10:59:18.544Z,24.61
2023-06-04T11:01:48.299Z,24.44
2023-06-04T11:04:22.614Z,24.71
2023-06-04T11:07:10.638Z,24.95
2023-06-04T11:09:49.598Z,25.01
2023-06-04T11:12:18.649Z,24.80
2023-06-04T11:14:59.463Z,25.10
2023-06-04T11:17:26.082Z,25.20
2023-06-04T11:19:56.572Z,25.00
2023-06-04T11:22:26.182Z,24.78
2023-06-04T11:25:01.780Z,24.50
2023-06-04T11:27:36.587Z,24.59
2023-06-04T11:30:08.714Z,25.06
2023-06-04T11:32:35.419Z,24.63
2023-06-04T11:35:07.643Z,24.77
2023-06-04T11:37:36.282Z,24.71
2023-06-04T11:40:04.497Z,24.29
2023-06-04T11:42:37.245Z,24.33
2023-06-04T11:45:07.584Z,24.47
2023-06-04T11:47:34.210Z,24.43
2023-06-04T11:50:00.874Z,24.63
2023-06-04T11:52:29.063Z,24.86
2023-06-04T11:54:58.390Z,25.02
2023-06-04T11:57:25.094Z,25.01
2023-06-04T11:59:51.769Z,24.85
2023-06-04T12:02:24.561Z,25.12
2023-06-04T12:04:53.715Z,25.14
2023-06-04T12:07:26.535Z,24.79
2023-06-04T12:09:57.830Z,24.99
2023-06-04T12:12:25.237Z,25.20
2023-06-04T12:15:01.033Z,25.18
2023-06-04T12:17:27.940Z,25.25
2023-06-04T12:19:54.477Z,25.16
2023-06-04T12:22:21.056Z,25.21
2023-06-04T12:24:54.998Z,25.05
2023-06-04T12:27:26.690Z,24.79
2023-06-04T12:30:03.486Z,24.79
2023-06-04T12:32:35.601Z,24.82
2023-06-04T12:35:04.706Z,25.29
2023-06-04T12:37:33.388Z,25.30
2023-06-04T12:40:00.007Z,25.18
2023-06-04T12:42:30.080Z,25.16
2023-06-04T12:44:56.907Z,25.32
2023-06-04T12:47:24.405Z,25.58
2023-06-04T12:49:54.853Z,25.54
2023-06-04T12:52:23.912Z,25.46
2023-06-04T12:54:50.521Z,25.26
2023-06-04T12:57:17.088Z,25.27
2023-06-04T12:59:43.760Z,25.60
2023-06-04T13:02:17.355Z,25.44
2023-06-04T13:04:47.042Z,25.15
2023-06-04T13:07:16.610Z,25.02
2023-06-04T13:09:43.414Z,25.22
2023-06-04T13:12:12.283Z,25.26
2023-06-04T13:14:45.966Z,25.45
2023-06-04T13:17:22.166Z,25.44
2023-06-04T13:19:49.492Z,25.34
2023-06-04T13:22:18.334Z,25.45
2023-06-04T13:24:47.434Z,25.29
2023-06-04T13:27:17.392Z,25.14
2023-06-04T13:29:46.211Z,25.28
2023-06-04T13:32:13.137Z,25.09
2023-06-04T13:34:39.764Z,25.10
2023-06-04T13:37:12.070Z,25.16
2023-06-04T13:39:39.816Z,24.90
2023-06-04T13:42:06.636Z,25.22
2023-06-04T13:44:35.519Z,25.30
2023-06-04T13:47:04.617Z,25.18
2023-06-04T13:49:34.074Z,25.03
2023-06-04T13:52:00.725Z,24.96
2023-06-04T13:54:29.998Z,25.15
2023-06-04T13:56:58.808Z,25.17
2023-06-04T13:59:25.438Z,25.17
2023-06-04T14:01:52.019Z,25.36
2023-06-04T14:04:21.203Z,25.22
2023-06-04T14:06:48.220Z,24.86
2023-06-04T14:09:14.989Z,24.79
2023-06-04T14:11:41.537Z,24.74
2023-06-04T14:14:08.727Z,24.91
2023-06-04T14:16:35.822Z,25.06
2023-06-04T14:19:04.893Z,25.03
2023-06-04T14:21:33.914Z,24.89
2023-06-04T14:24:03.446Z,24.92
2023-06-04T14:26:30.441Z,24.57
2023-06-04T14:28:57.645Z,24.19
2023-06-04T14:31:27.721Z,24.37
2023-06-04T14:33:58.812Z,24.27
2023-06-04T14:36:27.600Z,24.02
2023-06-04T14:38:56.433Z,23.97
2023-06-04T14:41:25.078Z,23.98
2023-06-04T14:43:51.568Z,24.04
2023-06-04T14:46:18.235Z,24.17
2023-06-04T14:48:44.971Z,23.92
2023-06-04T14:51:13.793Z,23.73
2023-06-04T14:53:40.399Z,23.68
2023-06-04T14:56:07.634Z,23.86
2023-06-04T14:58:38.764Z,23.97
2023-06-04T15:01:09.287Z,24.04
2023-06-04T15:03:38.528Z,24.06
2023-06-04T15:08:37.198Z,23.84
2023-06-04T15:11:06.291Z,23.82
2023-06-04T15:13:32.904Z,23.69
2023-06-04T15:15:59.440Z,23.53
2023-06-04T15:18:26.069Z,23.57
2023-06-04T15:20:52.746Z,23.51
2023-06-04T15:23:19.708Z,23.28
2023-06-04T15:25:46.262Z,23.29
2023-06-04T15:28:12.849Z,23.28
2023-06-04T15:30:39.437Z,23.08
2023-06-04T15:33:05.988Z,23.09
2023-06-04T15:35:32.558Z,23.06
2023-06-04T15:37:59.195Z,22.87
2023-06-04T15:40:28.150Z,22.73
2023-06-04T15:42:54.749Z,22.66
2023-06-04T15:45:25.663Z,22.64
2023-06-04T15:47:55.142Z,22.61
2023-06-04T15:50:21.724Z,22.61
2023-06-04T15:52:54.977Z,22.73
2023-06-04T15:55:22.708Z,22.77
2023-06-04T15:57:51.717Z,22.74
2023-06-04T16:00:20.756Z,22.58
2023-06-04T16:02:49.688Z,22.52
2023-06-04T16:05:17.081Z,22.57
2023-06-04T16:07:43.456Z,22.72
2023-06-04T16:10:10.499Z,22.64
2023-06-04T16:12:36.989Z,22.54
2023-06-04T16:15:08.843Z,22.41
2023-06-04T16:17:43.427Z,22.37
2023-06-04T16:20:12.675Z,22.31
2023-06-04T16:22:39.227Z,22.36
2023-06-04T16:25:06.322Z,22.21
2023-06-04T16:27:33.066Z,22.15
2023-06-04T16:29:59.921Z,22.15
2023-06-04T16:32:26.573Z,22.09
2023-06-04T16:34:58.547Z,21.99
2023-06-04T16:37:29.684Z,21.79
2023-06-04T16:39:56.590Z,21.77
2023-06-04T16:42:25.856Z,21.73
2023-06-04T16:44:56.310Z,21.82
2023-06-04T16:47:24.940Z,21.85
2023-06-04T16:49:51.572Z,21.70
2023-06-04T16:52:20.422Z,21.55
2023-06-04T16:54:51.764Z,21.44
2023-06-04T16:57:20.052Z,21.40
2023-06-04T16:59:48.930Z,21.41
2023-06-04T17:02:15.665Z,21.37
2023-06-04T17:04:42.985Z,21.37
2023-06-04T17:07:11.909Z,21.27
2023-06-04T17:09:38.814Z,21.19
2023-06-04T17:12:09.005Z,21.17
2023-06-04T17:14:36.814Z,21.11
2023-06-04T17:17:10.789Z,20.98
2023-06-04T17:19:41.852Z,20.96
2023-06-04T17:22:08.727Z,20.86
2023-06-04T17:24:35.282Z,20.79
2023-06-04T17:27:01.817Z,20.70
2023-06-04T17:29:28.303Z,20.65
2023-06-04T17:31:58.017Z,20.64
2023-06-04T17:34:26.935Z,20.60
2023-06-04T17:36:53.569Z,20.59
2023-06-04T17:39:23.188Z,20.53
2023-06-04T17:41:53.124Z,20.42
2023-06-04T17:44:19.625Z,20.34
2023-06-04T17:46:48.825Z,20.32
2023-06-04T17:49:16.217Z,20.31
2023-06-04T17:51:47.282Z,20.23
2023-06-04T17:54:16.155Z,20.15
2023-06-04T17:56:42.693Z,20.07
2023-06-04T17:59:14.932Z,20.04
2023-06-04T18:01:41.461Z,19.96
2023-06-04T18:04:15.526Z,19.88
2023-06-04T18:06:44.338Z,19.79
2023-06-04T18:09:11.091Z,19.72
2023-06-04T18:11:37.656Z,19.62
2023-06-04T18:14:06.137Z,19.58
2023-06-04T18:16:35.853Z,19.55
2023-06-04T18:19:02.397Z,19.52
2023-06-04T18:21:29.008Z,19.46
2023-06-04T18:24:00.780Z,19.38
2023-06-04T18:26:29.778Z,19.31
2023-06-04T18:28:56.374Z,19.25
2023-06-04T18:31:22.962Z,19.19
2023-06-04T18:34:05.121Z,19.12
2023-06-04T18:36:34.628Z,19.05
2023-06-04T18:39:04.932Z,18.98
2023-06-04T18:41:31.495Z,18.88
2023-06-04T18:43:58.053Z,18.80
2023-06-04T18:46:27.163Z,18.73
2023-06-04T18:48:58.364Z,18.61
2023-06-04T18:51:24.877Z,18.49
2023-06-04T18:53:54.024Z,18.39
2023-06-04T18:56:26.489Z,18.28
2023-06-04T18:58:53.964Z,18.24
2023-06-04T19:01:20.500Z,18.20
2023-06-04T19:03:49.659Z,18.13
2023-06-04T19:06:16.618Z,18.06
2023-06-04T19:08:43.418Z,17.98
2023-06-04T19:11:12.364Z,17.86
2023-06-04T19:13:38.859Z,17.79
2023-06-04T19:16:06.560Z,17.74
2023-06-04T19:18:35.717Z,17.62
2023-06-04T19:21:04.902Z,17.56
2023-06-04T19:23:35.098Z,17.50
2023-06-04T19:26:02.149Z,17.40
2023-06-04T19:28:28.863Z,17.31
2023-06-04T19:30:55.484Z,17.23
2023-06-04T19:33:24.867Z,17.12
2023-06-04T19:35:54.297Z,17.06
2023-06-04T19:38:25.821Z,16.99
2023-06-04T19:40:52.379Z,16.90
2023-06-04T19:43:23.973Z,16.79
2023-06-04T19:45:57.764Z,16.74
2023-06-04T19:48:24.527Z,16.67
2023-06-04T19:50:55.680Z,16.60
2023-06-04T19:53:26.769Z,16.54
2023-06-04T19:55:55.849Z,16.50
2023-06-04T19:58:26.671Z,16.42
2023-06-04T20:00:54.956Z,16.35
2023-06-04T20:03:24.492Z,16.24
2023-06-04T20:05:51.125Z,16.18
2023-06-04T20:08:20.760Z,16.12
2023-06-04T20:10:49.440Z,16.02
2023-06-04T20:13:16.435Z,15.93
2023-06-04T20:15:43.336Z,15.87
2023-06-04T20:18:09.943Z,15.78
2023-06-04T20:20:39.006Z,15.70
2023-06-04T20:23:05.669Z,15.61
2023-06-04T20:25:34.618Z,15.58
2023-06-04T20:28:07.953Z,15.51
2023-06-04T20:30:34.567Z,15.48
2023-06-04T20:33:06.594Z,15.44
2023-06-04T20:35:35.726Z,15.39
2023-06-04T20:38:03.864Z,15.31
2023-06-04T20:40:35.414Z,15.22
2023-06-04T20:43:02.505Z,15.17
2023-06-04T20:45:32.428Z,15.14
2023-06-04T20:48:01.254Z,15.07
2023-06-04T20:50:30.198Z,15.00
2023-06-04T20:52:59.165Z,14.96
2023-06-04T20:55:25.866Z,14.90
2023-06-04T20:57:52.405Z,14.87
2023-06-04T21:00:21.680Z,14.84
2023-06-04T21:02:48.423Z,14.77
2023-06-04T21:05:15.066Z,14.70
2023-06-04T21:07:41.625Z,14.64
2023-06-04T21:10:11.446Z,14.57
2023-06-04T21:12:40.048Z,14.52
2023-06-04T21:15:09.351Z,14.48
2023-06-04T21:17:38.336Z,14.40
2023-06-04T21:20:05.337Z,14.36
2023-06-04T21:22:31.855Z,14.30
2023-06-04T21:24:58.459Z,14.26
2023-06-04T21:27:25.035Z,14.21
2023-06-04T21:29:54.142Z,14.14
2023-06-04T21:32:20.726Z,14.13
2023-06-04T21:34:52.195Z,14.07
2023-06-04T21:37:21.421Z,14.02
2023-06-04T21:39:50.028Z,13.92
2023-06-04T21:42:19.041Z,13.88
2023-06-04T21:44:45.616Z,13.87
2023-06-04T21:47:15.781Z,13.81
2023-06-04T21:49:44.576Z,13.79
2023-06-04T21:52:25.499Z,13.74
2023-06-04T21:54:54.953Z,13.66
2023-06-04T21:57:21.462Z,13.59
2023-06-04T21:59:53.030Z,13.57
2023-06-04T22:02:19.884Z,13.52
2023-06-04T22:04:51.311Z,13.47
2023-06-04T22:07:20.538Z,13.39
2023-06-04T22:09:47.080Z,13.30
2023-06-04T22:12:13.620Z,13.30
2023-06-04T22:14:42.710Z,13.24
2023-06-04T22:17:11.501Z,13.19
2023-06-04T22:19:40.293Z,13.14
2023-06-04T22:22:06.849Z,13.10
2023-06-04T22:24:33.560Z,13.05
2023-06-04T22:27:00.338Z,13.01
2023-06-04T22:29:26.849Z,12.96
2023-06-04T22:31:53.454Z,12.93
2023-06-04T22:34:20.085Z,12.89
2023-06-04T22:36:46.600Z,12.89
2023-06-04T22:39:17.668Z,12.88
2023-06-04T22:41:46.615Z,12.84
2023-06-04T22:44:13.149Z,12.83
2023-06-04T22:46:42.297Z,12.74
2023-06-04T22:49:08.930Z,12.70
2023-06-04T22:51:38.805Z,12.67
2023-06-04T22:54:05.384Z,12.62
2023-06-04T22:56:34.439Z,12.57
2023-06-04T22:59:03.501Z,12.51
2023-06-04T23:01:32.484Z,12.48
2023-06-04T23:03:59.081Z,12.49
2023-06-04T23:06:26.074Z,12.44
2023-06-04T23:08:52.612Z,12.37
2023-06-04T23:11:19.176Z,12.29
2023-06-04T23:13:46.054Z,12.21
2023-06-04T23:16:12.622Z,12.18
2023-06-04T23:18:39.204Z,12.17
2023-06-04T23:21:08.284Z,12.09
2023-06-04T23:23:35.132Z,12.06
2023-06-04T23:26:06.400Z,12.04
2023-06-04T23:28:32.988Z,12.01
2023-06-04T23:30:59.522Z,11.98
2023-06-04T23:33:28.317Z,11.96
2023-06-04T23:35:54.860Z,11.92
2023-06-04T23:38:23.934Z,11.94
2023-06-04T23:40:50.571Z,11.91
2023-06-04T23:43:19.478Z,11.85
2023-06-04T23:45:49.081Z,11.79
2023-06-04T23:48:17.973Z,11.80
2023-06-04T23:50:44.542Z,11.76
2023-06-04T23:53:11.166Z,11.70
2023-06-04T23:55:40.559Z,11.68
2023-06-04T23:58:07.174Z,11.64
